sensor_id;sensor_type;location;lat;lon;timestamp;temperature;humidity
62259;DHT22;48241;48.824;10.102;2023-03-24T00:01:59;14.00;85.00
62259;DHT22;48241;48.824;10.102;2023-03-24T00:04:25;14.20;85.00
62259;DHT22;48241;48.824;10.102;2023-03-24T00:06:52;14.10;84.40
62259;DHT22;48241;48.824;10.102;2023-03-24T00:09:18;13.90;85.10
62259;DHT22;48241;48.824;10.102;2023-03-24T00:11:44;13.90;86.30
62259;DHT22;48241;48.824;10.102;2023-03-24T00:14:10;13.70;86.60
62259;DHT22;48241;48.824;10.102;2023-03-24T00:16:37;13.70;86.60
62259;DHT22;48241;48.824;10.102;2023-03-24T00:19:07;13.80;86.10
62259;DHT22;48241;48.824;10.102;2023-03-24T00:21:33;14.10;84.70
62259;DHT22;48241;48.824;10.102;2023-03-24T00:23:59;14.10;83.30
62259;DHT22;48241;48.824;10.102;2023-03-24T00:26:26;14.50;82.80
62259;DHT22;48241;48.824;10.102;2023-03-24T00:28:53;14.80;80.70
62259;DHT22;48241;48.824;10.102;2023-03-24T00:31:19;15.00;81.70
62259;DHT22;48241;48.824;10.102;2023-03-24T00:33:46;14.90;79.80
62259;DHT22;48241;48.824;10.102;2023-03-24T00:36:18;14.90;83.00
62259;DHT22;48241;48.824;10.102;2023-03-24T00:38:45;14.70;80.20
62259;DHT22;48241;48.824;10.102;2023-03-24T00:41:14;14.50;81.10
62259;DHT22;48241;48.824;10.102;2023-03-24T00:43:44;14.40;84.70
62259;DHT22;48241;48.824;10.102;2023-03-24T00:46:12;14.30;82.70
62259;DHT22;48241;48.824;10.102;2023-03-24T00:49:02;14.30;82.80
62259;DHT22;48241;48.824;10.102;2023-03-24T00:51:30;14.20;81.80
62259;DHT22;48241;48.824;10.102;2023-03-24T00:53:56;14.20;83.00
62259;DHT22;48241;48.824;10.102;2023-03-24T00:56:23;14.20;83.50
62259;DHT22;48241;48.824;10.102;2023-03-24T00:58:49;14.40;81.50
62259;DHT22;48241;48.824;10.102;2023-03-24T01:01:15;14.50;83.10
62259;DHT22;48241;48.824;10.102;2023-03-24T01:03:40;14.30;82.10
62259;DHT22;48241;48.824;10.102;2023-03-24T01:06:12;14.20;84.70
62259;DHT22;48241;48.824;10.102;2023-03-24T01:08:38;13.90;88.30
62259;DHT22;48241;48.824;10.102;2023-03-24T01:11:04;13.50;90.50
62259;DHT22;48241;48.824;10.102;2023-03-24T01:13:30;13.30;91.00
62259;DHT22;48241;48.824;10.102;2023-03-24T01:15:56;13.00;92.30
62259;DHT22;48241;48.824;10.102;2023-03-24T01:18:22;12.90;91.60
62259;DHT22;48241;48.824;10.102;2023-03-24T01:20:48;12.90;92.90
62259;DHT22;48241;48.824;10.102;2023-03-24T01:23:17;12.90;91.50
62259;DHT22;48241;48.824;10.102;2023-03-24T01:25:44;12.80;92.50
62259;DHT22;48241;48.824;10.102;2023-03-24T01:28:14;12.90;92.20
62259;DHT22;48241;48.824;10.102;2023-03-24T01:30:41;12.90;92.30
62259;DHT22;48241;48.824;10.102;2023-03-24T01:33:07;13.00;91.40
62259;DHT22;48241;48.824;10.102;2023-03-24T01:35:34;13.00;92.10
62259;DHT22;48241;48.824;10.102;2023-03-24T01:38:00;12.70;92.50
62259;DHT22;48241;48.824;10.102;2023-03-24T01:40:30;12.70;92.40
62259;DHT22;48241;48.824;10.102;2023-03-24T01:42:57;12.80;91.00
62259;DHT22;48241;48.824;10.102;2023-03-24T01:48:48;13.10;89.90
62259;DHT22;48241;48.824;10.102;2023-03-24T01:54:00;13.20;88.70
62259;DHT22;48241;48.824;10.102;2023-03-24T01:56:27;13.20;89.70
62259;DHT22;48241;48.824;10.102;2023-03-24T01:58:57;13.20;90.70
62259;DHT22;48241;48.824;10.102;2023-03-24T02:01:25;13.10;90.00
62259;DHT22;48241;48.824;10.102;2023-03-24T02:03:55;13.10;90.20
62259;DHT22;48241;48.824;10.102;2023-03-24T02:06:21;12.90;90.40
62259;DHT22;48241;48.824;10.102;2023-03-24T02:08:58;13.00;90.10
62259;DHT22;48241;48.824;10.102;2023-03-24T02:11:27;13.00;90.20
62259;DHT22;48241;48.824;10.102;2023-03-24T02:13:53;13.10;89.70
62259;DHT22;48241;48.824;10.102;2023-03-24T02:33:18;13.60;85.50
62259;DHT22;48241;48.824;10.102;2023-03-24T02:46:44;13.80;83.60
62259;DHT22;48241;48.824;10.102;2023-03-24T02:49:24;13.90;83.50
62259;DHT22;48241;48.824;10.102;2023-03-24T02:54:51;14.00;84.00
62259;DHT22;48241;48.824;10.102;2023-03-24T02:57:39;14.00;82.70
62259;DHT22;48241;48.824;10.102;2023-03-24T03:00:23;14.20;81.50
62259;DHT22;48241;48.824;10.102;2023-03-24T03:02:57;14.20;81.40
62259;DHT22;48241;48.824;10.102;2023-03-24T03:05:33;14.30;80.70
62259;DHT22;48241;48.824;10.102;2023-03-24T03:08:18;14.30;82.10
62259;DHT22;48241;48.824;10.102;2023-03-24T03:10:47;14.20;80.70
62259;DHT22;48241;48.824;10.102;2023-03-24T03:13:36;14.40;80.80
62259;DHT22;48241;48.824;10.102;2023-03-24T03:16:20;14.10;80.20
62259;DHT22;48241;48.824;10.102;2023-03-24T03:18:56;14.00;84.40
62259;DHT22;48241;48.824;10.102;2023-03-24T03:21:25;14.20;80.50
62259;DHT22;48241;48.824;10.102;2023-03-24T03:24:02;14.30;80.20
62259;DHT22;48241;48.824;10.102;2023-03-24T03:26:31;14.60;79.40
62259;DHT22;48241;48.824;10.102;2023-03-24T03:29:03;14.60;79.00
62259;DHT22;48241;48.824;10.102;2023-03-24T03:31:34;14.40;79.00
62259;DHT22;48241;48.824;10.102;2023-03-24T03:34:26;14.50;78.80
62259;DHT22;48241;48.824;10.102;2023-03-24T03:39:58;14.30;80.10
62259;DHT22;48241;48.824;10.102;2023-03-24T03:42:26;14.30;81.00
62259;DHT22;48241;48.824;10.102;2023-03-24T03:44:52;14.30;79.50
62259;DHT22;48241;48.824;10.102;2023-03-24T03:47:18;14.60;79.70
62259;DHT22;48241;48.824;10.102;2023-03-24T03:49:46;14.50;80.20
62259;DHT22;48241;48.824;10.102;2023-03-24T03:52:13;14.80;80.40
62259;DHT22;48241;48.824;10.102;2023-03-24T03:54:41;14.80;79.10
62259;DHT22;48241;48.824;10.102;2023-03-24T03:57:08;14.40;79.60
62259;DHT22;48241;48.824;10.102;2023-03-24T03:59:36;14.50;79.10
62259;DHT22;48241;48.824;10.102;2023-03-24T04:10:42;14.30;79.20
62259;DHT22;48241;48.824;10.102;2023-03-24T04:13:49;14.30;80.20
62259;DHT22;48241;48.824;10.102;2023-03-24T04:19:59;14.40;81.40
62259;DHT22;48241;48.824;10.102;2023-03-24T04:22:32;14.40;77.90
62259;DHT22;48241;48.824;10.102;2023-03-24T04:28:00;14.90;75.90
62259;DHT22;48241;48.824;10.102;2023-03-24T04:30:43;15.20;75.00
62259;DHT22;48241;48.824;10.102;2023-03-24T04:33:23;14.90;76.50
62259;DHT22;48241;48.824;10.102;2023-03-24T04:35:55;14.80;77.10
62259;DHT22;48241;48.824;10.102;2023-03-24T04:38:25;14.90;77.60
62259;DHT22;48241;48.824;10.102;2023-03-24T04:41:04;14.70;76.90
62259;DHT22;48241;48.824;10.102;2023-03-24T04:43:32;14.70;76.80
62259;DHT22;48241;48.824;10.102;2023-03-24T04:46:02;14.60;77.50
62259;DHT22;48241;48.824;10.102;2023-03-24T04:48:29;14.60;78.00
62259;DHT22;48241;48.824;10.102;2023-03-24T04:50:56;14.40;78.70
62259;DHT22;48241;48.824;10.102;2023-03-24T04:53:23;14.40;78.70
62259;DHT22;48241;48.824;10.102;2023-03-24T04:58:16;14.10;82.70
62259;DHT22;48241;48.824;10.102;2023-03-24T05:00:43;13.90;85.80
62259;DHT22;48241;48.824;10.102;2023-03-24T05:03:13;13.70;86.40
62259;DHT22;48241;48.824;10.102;2023-03-24T05:05:40;13.80;88.10
62259;DHT22;48241;48.824;10.102;2023-03-24T05:08:07;13.50;89.90
62259;DHT22;48241;48.824;10.102;2023-03-24T05:10:33;13.40;90.30
62259;DHT22;48241;48.824;10.102;2023-03-24T05:12:59;13.20;91.70
62259;DHT22;48241;48.824;10.102;2023-03-24T05:15:25;13.10;92.00
62259;DHT22;48241;48.824;10.102;2023-03-24T05:17:50;12.90;95.30
62259;DHT22;48241;48.824;10.102;2023-03-24T05:20:17;12.90;94.60
62259;DHT22;48241;48.824;10.102;2023-03-24T05:22:44;12.90;93.90
62259;DHT22;48241;48.824;10.102;2023-03-24T05:25:10;12.90;94.80
62259;DHT22;48241;48.824;10.102;2023-03-24T05:27:36;12.70;92.80
62259;DHT22;48241;48.824;10.102;2023-03-24T05:30:02;12.80;94.70
62259;DHT22;48241;48.824;10.102;2023-03-24T05:32:31;12.90;93.20
62259;DHT22;48241;48.824;10.102;2023-03-24T05:34:57;12.80;93.30
62259;DHT22;48241;48.824;10.102;2023-03-24T05:45:17;13.30;92.50
62259;DHT22;48241;48.824;10.102;2023-03-24T05:53:14;13.40;91.60
62259;DHT22;48241;48.824;10.102;2023-03-24T05:55:39;13.60;91.70
62259;DHT22;48241;48.824;10.102;2023-03-24T05:58:06;13.80;91.10
62259;DHT22;48241;48.824;10.102;2023-03-24T06:00:32;13.80;90.90
62259;DHT22;48241;48.824;10.102;2023-03-24T06:02:58;13.90;89.90
62259;DHT22;48241;48.824;10.102;2023-03-24T06:05:25;13.90;90.60
62259;DHT22;48241;48.824;10.102;2023-03-24T06:07:51;14.10;90.40
62259;DHT22;48241;48.824;10.102;2023-03-24T06:10:26;14.40;87.60
62259;DHT22;48241;48.824;10.102;2023-03-24T06:12:52;14.40;87.70
62259;DHT22;48241;48.824;10.102;2023-03-24T06:15:18;14.60;86.40
62259;DHT22;48241;48.824;10.102;2023-03-24T06:17:44;14.70;87.40
62259;DHT22;48241;48.824;10.102;2023-03-24T06:20:11;14.80;88.40
62259;DHT22;48241;48.824;10.102;2023-03-24T06:22:42;14.80;89.60
62259;DHT22;48241;48.824;10.102;2023-03-24T08:47:28;13.70;97.50
62259;DHT22;48241;48.824;10.102;2023-03-24T08:49:56;13.70;98.00
62259;DHT22;48241;48.824;10.102;2023-03-24T08:52:23;13.60;98.40
62259;DHT22;48241;48.824;10.102;2023-03-24T08:54:49;13.70;98.60
62259;DHT22;48241;48.824;10.102;2023-03-24T08:57:15;13.90;98.00
62259;DHT22;48241;48.824;10.102;2023-03-24T08:59:41;14.20;97.50
62259;DHT22;48241;48.824;10.102;2023-03-24T09:02:10;14.30;97.80
62259;DHT22;48241;48.824;10.102;2023-03-24T09:04:36;14.40;97.70
62259;DHT22;48241;48.824;10.102;2023-03-24T09:07:02;14.40;97.20
62259;DHT22;48241;48.824;10.102;2023-03-24T09:09:28;14.50;97.20
62259;DHT22;48241;48.824;10.102;2023-03-24T09:12:06;15.00;96.40
62259;DHT22;48241;48.824;10.102;2023-03-24T09:14:34;15.10;96.20
62259;DHT22;48241;48.824;10.102;2023-03-24T09:16:59;15.40;95.80
62259;DHT22;48241;48.824;10.102;2023-03-24T09:19:28;15.80;95.30
62259;DHT22;48241;48.824;10.102;2023-03-24T09:21:54;15.70;92.60
62259;DHT22;48241;48.824;10.102;2023-03-24T09:24:22;16.20;94.20
62259;DHT22;48241;48.824;10.102;2023-03-24T09:26:47;16.60;92.50
62259;DHT22;48241;48.824;10.102;2023-03-24T09:29:13;16.30;92.40
62259;DHT22;48241;48.824;10.102;2023-03-24T09:31:38;16.20;92.50
62259;DHT22;48241;48.824;10.102;2023-03-24T09:34:09;16.30;93.30
62259;DHT22;48241;48.824;10.102;2023-03-24T09:36:35;16.00;93.60
62259;DHT22;48241;48.824;10.102;2023-03-24T09:39:03;16.40;93.70
62259;DHT22;48241;48.824;10.102;2023-03-24T09:41:32;16.60;93.30
62259;DHT22;48241;48.824;10.102;2023-03-24T09:44:45;16.90;92.80
62259;DHT22;48241;48.824;10.102;2023-03-24T09:47:35;17.20;92.70
62259;DHT22;48241;48.824;10.102;2023-03-24T09:49:41;17.30;90.80
62259;DHT22;48241;48.824;10.102;2023-03-24T09:52:18;17.60;90.80
62259;DHT22;48241;48.824;10.102;2023-03-24T09:54:54;18.10;90.40
62259;DHT22;48241;48.824;10.102;2023-03-24T09:57:28;18.50;88.80
62259;DHT22;48241;48.824;10.102;2023-03-24T09:59:55;18.80;88.50
62259;DHT22;48241;48.824;10.102;2023-03-24T10:02:21;18.50;86.50
62259;DHT22;48241;48.824;10.102;2023-03-24T10:04:50;18.50;86.60
62259;DHT22;48241;48.824;10.102;2023-03-24T10:07:42;18.70;87.00
62259;DHT22;48241;48.824;10.102;2023-03-24T10:13:19;18.50;85.70
62259;DHT22;48241;48.824;10.102;2023-03-24T10:15:52;18.80;86.20
62259;DHT22;48241;48.824;10.102;2023-03-24T10:18:39;19.00;83.90
62259;DHT22;48241;48.824;10.102;2023-03-24T10:26:51;19.90;81.10
62259;DHT22;48241;48.824;10.102;2023-03-24T10:32:07;20.50;78.60
62259;DHT22;48241;48.824;10.102;2023-03-24T10:34:52;20.10;76.20
62259;DHT22;48241;48.824;10.102;2023-03-24T10:37:33;20.00;78.30
62259;DHT22;48241;48.824;10.102;2023-03-24T10:40:14;20.50;76.40
62259;DHT22;48241;48.824;10.102;2023-03-24T10:42:50;21.00;75.30
62259;DHT22;48241;48.824;10.102;2023-03-24T10:45:31;21.50;73.70
62259;DHT22;48241;48.824;10.102;2023-03-24T10:48:02;21.40;73.90
62259;DHT22;48241;48.824;10.102;2023-03-24T10:50:32;21.30;71.10
62259;DHT22;48241;48.824;10.102;2023-03-24T10:53:21;21.40;72.70
62259;DHT22;48241;48.824;10.102;2023-03-24T10:55:50;21.40;69.20
62259;DHT22;48241;48.824;10.102;2023-03-24T10:58:34;21.80;70.10
62259;DHT22;48241;48.824;10.102;2023-03-24T11:01:08;22.10;68.90
62259;DHT22;48241;48.824;10.102;2023-03-24T11:03:49;22.00;68.50
62259;DHT22;48241;48.824;10.102;2023-03-24T11:06:20;21.80;68.50
62259;DHT22;48241;48.824;10.102;2023-03-24T11:08:46;22.10;68.20
62259;DHT22;48241;48.824;10.102;2023-03-24T11:11:30;22.30;66.50
62259;DHT22;48241;48.824;10.102;2023-03-24T11:14:32;21.90;67.30
62259;DHT22;48241;48.824;10.102;2023-03-24T11:17:10;21.50;67.30
62259;DHT22;48241;48.824;10.102;2023-03-24T11:19:36;21.70;68.20
62259;DHT22;48241;48.824;10.102;2023-03-24T11:22:04;20.90;68.00
62259;DHT22;48241;48.824;10.102;2023-03-24T11:24:37;20.80;67.90
62259;DHT22;48241;48.824;10.102;2023-03-24T11:27:03;19.60;69.60
62259;DHT22;48241;48.824;10.102;2023-03-24T11:29:31;19.10;71.50
62259;DHT22;48241;48.824;10.102;2023-03-24T11:32:02;19.10;73.60
62259;DHT22;48241;48.824;10.102;2023-03-24T11:34:37;19.00;74.20
62259;DHT22;48241;48.824;10.102;2023-03-24T11:37:18;19.30;73.10
62259;DHT22;48241;48.824;10.102;2023-03-24T11:43:00;19.40;74.20
62259;DHT22;48241;48.824;10.102;2023-03-24T11:45:29;19.40;70.90
62259;DHT22;48241;48.824;10.102;2023-03-24T11:47:58;19.60;73.50
62259;DHT22;48241;48.824;10.102;2023-03-24T11:50:28;19.70;71.30
62259;DHT22;48241;48.824;10.102;2023-03-24T11:55:48;19.70;71.10
62259;DHT22;48241;48.824;10.102;2023-03-24T11:58:31;19.70;71.80
62259;DHT22;48241;48.824;10.102;2023-03-24T12:01:01;19.00;69.30
62259;DHT22;48241;48.824;10.102;2023-03-24T12:03:53;18.10;72.10
62259;DHT22;48241;48.824;10.102;2023-03-24T12:17:27;19.50;69.80
62259;DHT22;48241;48.824;10.102;2023-03-24T12:34:10;19.60;67.90
62259;DHT22;48241;48.824;10.102;2023-03-24T12:39:30;19.30;67.80
62259;DHT22;48241;48.824;10.102;2023-03-24T12:44:38;18.90;69.50
62259;DHT22;48241;48.824;10.102;2023-03-24T12:53:17;19.40;68.00
62259;DHT22;48241;48.824;10.102;2023-03-24T12:55:57;19.00;68.40
62259;DHT22;48241;48.824;10.102;2023-03-24T12:58:45;18.70;69.70
62259;DHT22;48241;48.824;10.102;2023-03-24T13:01:35;18.60;70.00
62259;DHT22;48241;48.824;10.102;2023-03-24T13:09:55;18.80;71.10
62259;DHT22;48241;48.824;10.102;2023-03-24T13:12:26;18.60;69.30
62259;DHT22;48241;48.824;10.102;2023-03-24T13:20:13;18.90;69.40
62259;DHT22;48241;48.824;10.102;2023-03-24T13:22:47;18.80;69.10
62259;DHT22;48241;48.824;10.102;2023-03-24T13:28:19;18.20;70.60
62259;DHT22;48241;48.824;10.102;2023-03-24T13:30:46;17.80;70.00
62259;DHT22;48241;48.824;10.102;2023-03-24T13:33:24;17.40;71.80
62259;DHT22;48241;48.824;10.102;2023-03-24T13:41:03;17.60;70.90
62259;DHT22;48241;48.824;10.102;2023-03-24T13:43:31;17.60;71.40
62259;DHT22;48241;48.824;10.102;2023-03-24T13:46:00;17.80;71.10
62259;DHT22;48241;48.824;10.102;2023-03-24T13:51:05;18.00;69.30
62259;DHT22;48241;48.824;10.102;2023-03-24T13:53:37;17.70;70.40
62259;DHT22;48241;48.824;10.102;2023-03-24T13:56:04;17.80;70.50
62259;DHT22;48241;48.824;10.102;2023-03-24T13:59:04;17.80;69.90
62259;DHT22;48241;48.824;10.102;2023-03-24T14:01:33;17.90;69.90
62259;DHT22;48241;48.824;10.102;2023-03-24T14:04:20;17.80;69.70
62259;DHT22;48241;48.824;10.102;2023-03-24T14:06:51;17.80;70.80
62259;DHT22;48241;48.824;10.102;2023-03-24T14:09:23;17.80;70.40
62259;DHT22;48241;48.824;10.102;2023-03-24T14:12:07;17.80;69.60
62259;DHT22;48241;48.824;10.102;2023-03-24T14:15:12;17.60;69.50
62259;DHT22;48241;48.824;10.102;2023-03-24T14:17:43;17.70;71.00
62259;DHT22;48241;48.824;10.102;2023-03-24T14:20:15;17.80;68.70
62259;DHT22;48241;48.824;10.102;2023-03-24T14:22:47;17.50;70.20
62259;DHT22;48241;48.824;10.102;2023-03-24T14:27:43;17.40;72.00
62259;DHT22;48241;48.824;10.102;2023-03-24T14:32:59;17.20;70.70
62259;DHT22;48241;48.824;10.102;2023-03-24T14:38:03;17.40;70.10
62259;DHT22;48241;48.824;10.102;2023-03-24T14:40:37;17.10;71.80
62259;DHT22;48241;48.824;10.102;2023-03-24T14:43:25;17.00;72.30
62259;DHT22;48241;48.824;10.102;2023-03-24T14:46:02;16.60;75.10
62259;DHT22;48241;48.824;10.102;2023-03-24T14:48:49;16.40;76.20
62259;DHT22;48241;48.824;10.102;2023-03-24T14:54:14;16.00;84.60
62259;DHT22;48241;48.824;10.102;2023-03-24T14:56:46;15.40;89.00
62259;DHT22;48241;48.824;10.102;2023-03-24T15:00:06;15.00;91.50
62259;DHT22;48241;48.824;10.102;2023-03-24T15:05:27;14.40;93.70
62259;DHT22;48241;48.824;10.102;2023-03-24T15:13:40;14.20;94.60
62259;DHT22;48241;48.824;10.102;2023-03-24T15:18:52;14.00;94.40
62259;DHT22;48241;48.824;10.102;2023-03-24T15:21:39;13.90;95.30
62259;DHT22;48241;48.824;10.102;2023-03-24T15:27:16;13.70;96.10
62259;DHT22;48241;48.824;10.102;2023-03-24T15:29:43;13.40;96.20
62259;DHT22;48241;48.824;10.102;2023-03-24T15:32:32;13.50;96.50
62259;DHT22;48241;48.824;10.102;2023-03-24T15:35:05;13.40;96.10
62259;DHT22;48241;48.824;10.102;2023-03-24T15:37:39;13.30;96.50
62259;DHT22;48241;48.824;10.102;2023-03-24T15:40:50;13.00;96.40
62259;DHT22;48241;48.824;10.102;2023-03-24T15:43:20;12.70;97.40
62259;DHT22;48241;48.824;10.102;2023-03-24T15:45:50;12.90;97.20
62259;DHT22;48241;48.824;10.102;2023-03-24T15:48:22;12.90;97.20
62259;DHT22;48241;48.824;10.102;2023-03-24T15:51:15;12.80;97.70
62259;DHT22;48241;48.824;10.102;2023-03-24T15:53:54;12.90;97.40
62259;DHT22;48241;48.824;10.102;2023-03-24T15:56:27;12.90;96.70
62259;DHT22;48241;48.824;10.102;2023-03-24T15:58:55;13.00;96.30
62259;DHT22;48241;48.824;10.102;2023-03-24T16:01:28;12.90;96.60
62259;DHT22;48241;48.824;10.102;2023-03-24T16:04:13;13.10;96.60
62259;DHT22;48241;48.824;10.102;2023-03-24T16:06:42;12.80;97.30
62259;DHT22;48241;48.824;10.102;2023-03-24T16:09:14;12.80;97.40
62259;DHT22;48241;48.824;10.102;2023-03-24T16:11:40;12.90;97.00
62259;DHT22;48241;48.824;10.102;2023-03-24T16:14:25;12.90;97.00
62259;DHT22;48241;48.824;10.102;2023-03-24T16:16:56;13.10;96.90
62259;DHT22;48241;48.824;10.102;2023-03-24T16:19:22;13.10;96.70
62259;DHT22;48241;48.824;10.102;2023-03-24T16:21:48;13.10;96.50
62259;DHT22;48241;48.824;10.102;2023-03-24T16:24:16;13.20;96.00
62259;DHT22;48241;48.824;10.102;2023-03-24T16:26:42;13.20;95.90
62259;DHT22;48241;48.824;10.102;2023-03-24T16:29:17;13.20;96.40
62259;DHT22;48241;48.824;10.102;2023-03-24T16:31:45;13.20;96.50
62259;DHT22;48241;48.824;10.102;2023-03-24T16:34:17;13.10;96.60
62259;DHT22;48241;48.824;10.102;2023-03-24T16:36:44;13.10;96.60
62259;DHT22;48241;48.824;10.102;2023-03-24T16:39:19;13.00;96.70
62259;DHT22;48241;48.824;10.102;2023-03-24T16:41:45;13.00;97.10
62259;DHT22;48241;48.824;10.102;2023-03-24T16:44:21;12.90;97.20
62259;DHT22;48241;48.824;10.102;2023-03-24T16:46:50;13.00;97.30
62259;DHT22;48241;48.824;10.102;2023-03-24T16:49:17;13.10;96.80
62259;DHT22;48241;48.824;10.102;2023-03-24T16:51:43;13.00;96.80
62259;DHT22;48241;48.824;10.102;2023-03-24T16:54:10;12.70;97.20
62259;DHT22;48241;48.824;10.102;2023-03-24T16:56:36;12.40;97.00
62259;DHT22;48241;48.824;10.102;2023-03-24T16:59:01;12.10;97.20
62259;DHT22;48241;48.824;10.102;2023-03-24T17:01:33;12.10;97.50
62259;DHT22;48241;48.824;10.102;2023-03-24T17:04:02;11.90;98.20
62259;DHT22;48241;48.824;10.102;2023-03-24T17:06:30;11.60;98.60
62259;DHT22;48241;48.824;10.102;2023-03-24T17:08:56;11.60;99.00
62259;DHT22;48241;48.824;10.102;2023-03-24T17:11:26;11.60;98.40
62259;DHT22;48241;48.824;10.102;2023-03-24T17:13:52;11.60;98.10
62259;DHT22;48241;48.824;10.102;2023-03-24T17:16:19;11.40;98.80
62259;DHT22;48241;48.824;10.102;2023-03-24T17:18:45;11.30;99.00
62259;DHT22;48241;48.824;10.102;2023-03-24T17:21:13;11.70;98.10
62259;DHT22;48241;48.824;10.102;2023-03-24T17:23:41;11.80;97.40
62259;DHT22;48241;48.824;10.102;2023-03-24T17:26:07;12.10;97.00
62259;DHT22;48241;48.824;10.102;2023-03-24T17:28:32;11.90;96.00
62259;DHT22;48241;48.824;10.102;2023-03-24T17:30:58;12.00;95.50
62259;DHT22;48241;48.824;10.102;2023-03-24T17:33:23;11.90;95.10
62259;DHT22;48241;48.824;10.102;2023-03-24T17:35:49;12.00;96.20
62259;DHT22;48241;48.824;10.102;2023-03-24T17:38:16;11.90;95.20
62259;DHT22;48241;48.824;10.102;2023-03-24T17:40:43;11.80;96.10
62259;DHT22;48241;48.824;10.102;2023-03-24T17:43:08;11.80;96.20
62259;DHT22;48241;48.824;10.102;2023-03-24T17:45:34;11.70;97.40
62259;DHT22;48241;48.824;10.102;2023-03-24T17:48:00;11.90;96.80
62259;DHT22;48241;48.824;10.102;2023-03-24T17:50:25;11.60;97.00
62259;DHT22;48241;48.824;10.102;2023-03-24T17:52:52;11.70;96.60
62259;DHT22;48241;48.824;10.102;2023-03-24T17:55:17;11.80;96.40
62259;DHT22;48241;48.824;10.102;2023-03-24T17:57:44;11.80;96.60
62259;DHT22;48241;48.824;10.102;2023-03-24T18:00:11;11.80;96.80
62259;DHT22;48241;48.824;10.102;2023-03-24T18:02:41;11.80;96.80
62259;DHT22;48241;48.824;10.102;2023-03-24T18:05:08;11.90;96.70
62259;DHT22;48241;48.824;10.102;2023-03-24T18:07:34;11.50;96.90
62259;DHT22;48241;48.824;10.102;2023-03-24T18:09:59;11.30;97.70
62259;DHT22;48241;48.824;10.102;2023-03-24T18:12:28;11.50;98.00
62259;DHT22;48241;48.824;10.102;2023-03-24T18:14:53;11.40;97.50
62259;DHT22;48241;48.824;10.102;2023-03-24T18:17:19;11.30;98.00
62259;DHT22;48241;48.824;10.102;2023-03-24T18:19:44;11.10;98.20
62259;DHT22;48241;48.824;10.102;2023-03-24T18:22:10;11.20;98.00
62259;DHT22;48241;48.824;10.102;2023-03-24T18:24:36;11.00;98.20
62259;DHT22;48241;48.824;10.102;2023-03-24T18:27:02;10.70;99.00
62259;DHT22;48241;48.824;10.102;2023-03-24T18:29:30;10.60;99.30
62259;DHT22;48241;48.824;10.102;2023-03-24T18:31:56;10.60;99.40
62259;DHT22;48241;48.824;10.102;2023-03-24T18:34:24;10.80;99.20
62259;DHT22;48241;48.824;10.102;2023-03-24T18:36:50;10.90;98.90
62259;DHT22;48241;48.824;10.102;2023-03-24T18:39:17;10.70;98.80
62259;DHT22;48241;48.824;10.102;2023-03-24T18:41:42;10.80;98.90
62259;DHT22;48241;48.824;10.102;2023-03-24T18:44:10;10.90;98.60
62259;DHT22;48241;48.824;10.102;2023-03-24T18:46:37;10.80;98.90
62259;DHT22;48241;48.824;10.102;2023-03-24T18:49:03;10.80;98.60
62259;DHT22;48241;48.824;10.102;2023-03-24T18:51:29;10.90;98.40
62259;DHT22;48241;48.824;10.102;2023-03-24T18:53:55;10.60;98.80
62259;DHT22;48241;48.824;10.102;2023-03-24T18:56:21;10.80;98.90
62259;DHT22;48241;48.824;10.102;2023-03-24T18:58:50;10.70;98.50
62259;DHT22;48241;48.824;10.102;2023-03-24T19:01:17;10.80;98.20
62259;DHT22;48241;48.824;10.102;2023-03-24T19:03:47;10.70;97.90
62259;DHT22;48241;48.824;10.102;2023-03-24T19:06:17;10.50;98.90
62259;DHT22;48241;48.824;10.102;2023-03-24T19:08:49;10.50;98.60
62259;DHT22;48241;48.824;10.102;2023-03-24T19:11:16;10.60;98.80
62259;DHT22;48241;48.824;10.102;2023-03-24T19:13:41;10.30;99.10
62259;DHT22;48241;48.824;10.102;2023-03-24T19:16:11;10.30;99.40
62259;DHT22;48241;48.824;10.102;2023-03-24T19:18:38;10.50;99.20
62259;DHT22;48241;48.824;10.102;2023-03-24T19:21:04;10.50;98.70
62259;DHT22;48241;48.824;10.102;2023-03-24T19:23:31;10.60;98.60
62259;DHT22;48241;48.824;10.102;2023-03-24T19:25:57;10.50;98.60
62259;DHT22;48241;48.824;10.102;2023-03-24T19:28:24;10.50;98.10
62259;DHT22;48241;48.824;10.102;2023-03-24T19:30:59;10.50;97.90
62259;DHT22;48241;48.824;10.102;2023-03-24T19:33:27;10.40;98.70
62259;DHT22;48241;48.824;10.102;2023-03-24T19:35:53;10.40;97.80
62259;DHT22;48241;48.824;10.102;2023-03-24T19:38:24;10.30;98.60
62259;DHT22;48241;48.824;10.102;2023-03-24T19:40:50;10.50;98.40
62259;DHT22;48241;48.824;10.102;2023-03-24T19:43:17;10.80;97.30
62259;DHT22;48241;48.824;10.102;2023-03-24T19:45:48;11.00;96.70
62259;DHT22;48241;48.824;10.102;2023-03-24T19:48:13;10.90;97.10
62259;DHT22;48241;48.824;10.102;2023-03-24T19:50:39;10.90;96.40
62259;DHT22;48241;48.824;10.102;2023-03-24T19:53:07;10.80;97.10
62259;DHT22;48241;48.824;10.102;2023-03-24T19:55:32;10.80;96.90
62259;DHT22;48241;48.824;10.102;2023-03-24T19:57:58;10.60;97.00
62259;DHT22;48241;48.824;10.102;2023-03-24T20:00:23;10.40;97.50
62259;DHT22;48241;48.824;10.102;2023-03-24T20:02:49;10.50;96.70
62259;DHT22;48241;48.824;10.102;2023-03-24T20:05:15;10.50;97.50
62259;DHT22;48241;48.824;10.102;2023-03-24T20:07:41;10.50;96.90
62259;DHT22;48241;48.824;10.102;2023-03-24T20:10:07;10.50;96.80
62259;DHT22;48241;48.824;10.102;2023-03-24T20:12:32;10.60;96.60
62259;DHT22;48241;48.824;10.102;2023-03-24T20:14:58;10.60;95.20
62259;DHT22;48241;48.824;10.102;2023-03-24T20:17:24;10.60;95.40
62259;DHT22;48241;48.824;10.102;2023-03-24T20:19:52;10.80;95.20
62259;DHT22;48241;48.824;10.102;2023-03-24T20:22:18;10.90;94.90
62259;DHT22;48241;48.824;10.102;2023-03-24T20:24:44;10.80;95.20
62259;DHT22;48241;48.824;10.102;2023-03-24T20:27:12;10.60;95.00
62259;DHT22;48241;48.824;10.102;2023-03-24T20:29:38;10.60;95.00
62259;DHT22;48241;48.824;10.102;2023-03-24T20:32:04;10.70;94.70
62259;DHT22;48241;48.824;10.102;2023-03-24T20:34:30;10.40;94.90
62259;DHT22;48241;48.824;10.102;2023-03-24T20:36:56;10.50;95.00
62259;DHT22;48241;48.824;10.102;2023-03-24T20:39:21;10.40;94.20
62259;DHT22;48241;48.824;10.102;2023-03-24T20:41:47;10.30;94.30
62259;DHT22;48241;48.824;10.102;2023-03-24T20:44:13;10.40;94.50
62259;DHT22;48241;48.824;10.102;2023-03-24T20:46:38;10.50;94.20
62259;DHT22;48241;48.824;10.102;2023-03-24T20:49:04;10.10;93.80
62259;DHT22;48241;48.824;10.102;2023-03-24T20:51:30;10.10;94.70